createdAt,value
2023-02-22T00:01:19.387Z,8.90
2023-02-22T00:06:25.225Z,8.90
2023-02-22T00:11:27.445Z,8.90
2023-02-22T00:16:31.098Z,8.80
2023-02-22T00:21:33.226Z,8.90
2023-02-22T00:26:35.380Z,8.90
2023-02-22T00:31:39.296Z,8.80
2023-02-22T00:36:48.524Z,8.80
2023-02-22T00:41:50.720Z,8.80
2023-02-22T00:46:52.978Z,8.80
2023-02-22T00:51:57.382Z,8.80
2023-02-22T00:56:59.541Z,8.80
2023-02-22T01:02:02.800Z,8.70
2023-02-22T01:07:05.341Z,8.70
2023-02-22T01:12:08.176Z,8.70
2023-02-22T01:17:10.377Z,8.80
2023-02-22T01:22:12.571Z,8.70
2023-02-22T01:27:15.298Z,8.70
2023-02-22T01:32:17.709Z,8.60
2023-02-22T01:37:19.977Z,8.60
2023-02-22T01:42:24.137Z,8.60
2023-02-22T01:47:26.345Z,8.60
2023-02-22T01:52:28.561Z,8.60
2023-02-22T01:57:34.831Z,8.60
2023-02-22T02:02:41.570Z,8.60
2023-02-22T02:07:46.666Z,8.60
2023-02-22T02:12:51.149Z,8.60
2023-02-22T02:18:04.253Z,8.60
2023-02-22T02:23:41.352Z,8.60
2023-02-22T02:28:49.515Z,8.60
2023-02-22T02:34:09.694Z,8.60
2023-02-22T02:39:25.854Z,8.60
2023-02-22T02:44:33.459Z,8.60
2023-02-22T02:49:48.886Z,8.60
2023-02-22T02:54:52.932Z,8.50
2023-02-22T02:59:55.074Z,8.50
2023-02-22T03:05:16.350Z,8.50
2023-02-22T03:10:37.999Z,8.50
2023-02-22T03:15:57.107Z,8.50
2023-02-22T03:21:07.152Z,8.50
2023-02-22T03:26:19.448Z,8.50
2023-02-22T03:31:37.939Z,8.50
2023-02-22T03:36:47.607Z,8.60
2023-02-22T03:41:51.588Z,8.60
2023-02-22T03:47:02.602Z,8.60
2023-02-22T03:52:07.027Z,8.60
2023-02-22T03:57:21.138Z,8.60
2023-02-22T04:02:33.556Z,8.60
2023-02-22T04:07:35.818Z,8.60
2023-02-22T04:12:38.625Z,8.60
2023-02-22T04:17:42.738Z,8.60
2023-02-22T04:22:48.688Z,8.60
2023-02-22T04:27:51.447Z,8.60
2023-02-22T04:32:57.927Z,8.60
2023-02-22T04:38:00.555Z,8.60
2023-02-22T04:43:02.878Z,8.60
2023-02-22T04:48:05.205Z,8.60
2023-02-22T04:53:07.430Z,8.60
2023-02-22T04:58:13.271Z,8.60
2023-02-22T05:03:15.441Z,8.60
2023-02-22T05:08:17.565Z,8.60
2023-02-22T05:13:19.674Z,8.70
2023-02-22T05:18:21.810Z,8.70
2023-02-22T05:23:24.050Z,8.70
2023-02-22T05:28:27.020Z,8.70
2023-02-22T05:33:29.155Z,8.60
2023-02-22T05:38:31.326Z,8.70
2023-02-22T05:43:33.464Z,8.70
2023-02-22T05:48:35.633Z,8.70
2023-02-22T05:53:38.094Z,8.70
2023-02-22T05:58:40.234Z,8.70
2023-02-22T06:03:42.418Z,8.80
2023-02-22T06:08:44.631Z,8.80
2023-02-22T06:13:52.048Z,8.80
2023-02-22T06:18:54.216Z,8.80
2023-02-22T06:23:56.460Z,8.90
2023-02-22T06:28:58.675Z,8.90
2023-02-22T06:34:00.907Z,8.90
2023-02-22T06:39:03.400Z,8.80
2023-02-22T06:44:05.464Z,8.80
2023-02-22T06:49:07.577Z,8.80
2023-02-22T06:54:10.061Z,8.70
2023-02-22T06:59:12.198Z,8.60
2023-02-22T07:04:14.325Z,8.60
2023-02-22T07:09:18.282Z,8.50
2023-02-22T07:14:20.361Z,8.50
2023-02-22T07:19:22.500Z,8.60
2023-02-22T07:24:25.271Z,8.60
2023-02-22T07:29:27.316Z,8.60
2023-02-22T07:34:29.481Z,8.70
2023-02-22T07:39:31.676Z,8.70
2023-02-22T07:44:33.826Z,8.70
2023-02-22T07:49:36.803Z,8.60
2023-02-22T07:54:38.912Z,8.50
2023-02-22T07:59:41.058Z,8.50
2023-02-22T08:04:43.262Z,8.50
2023-02-22T08:09:45.392Z,8.60
2023-02-22T08:14:47.540Z,8.40
2023-02-22T08:19:49.676Z,8.30
2023-02-22T08:24:54.356Z,8.30
2023-02-22T08:29:57.585Z,8.30
2023-02-22T08:34:59.644Z,8.30
2023-02-22T08:40:01.689Z,8.10
2023-02-22T08:45:03.972Z,8.00
2023-02-22T08:50:06.986Z,8.00
2023-02-22T08:55:09.102Z,8.10
2023-02-22T09:00:11.944Z,8.20
2023-02-22T09:05:14.079Z,8.30
2023-02-22T09:10:19.658Z,8.40
2023-02-22T09:15:23.007Z,8.60
2023-02-22T09:20:25.633Z,8.70
2023-02-22T09:25:27.729Z,8.80
2023-02-22T09:30:35.054Z,8.80
2023-02-22T09:35:46.451Z,9.00
2023-02-22T09:41:02.625Z,9.10
2023-02-22T09:46:04.637Z,9.00
2023-02-22T09:51:16.630Z,8.60
2023-02-22T09:56:20.911Z,8.40
2023-02-22T10:01:33.341Z,8.30
2023-02-22T10:06:37.129Z,8.30
2023-02-22T10:12:03.683Z,8.40
2023-02-22T10:17:24.583Z,8.60
2023-02-22T10:22:59.551Z,8.80
2023-02-22T10:28:13.550Z,9.00
2023-02-22T10:33:36.771Z,9.00
2023-02-22T10:38:39.505Z,8.70
2023-02-22T10:43:43.029Z,8.00
2023-02-22T10:48:48.860Z,8.00
2023-02-22T10:54:20.025Z,8.20
2023-02-22T10:59:37.562Z,8.40
2023-02-22T11:04:49.775Z,8.70
2023-02-22T11:10:04.143Z,8.80
2023-02-22T11:15:32.839Z,8.90
2023-02-22T11:20:39.509Z,9.00
2023-02-22T11:25:42.919Z,9.20
2023-02-22T11:30:50.090Z,9.40
2023-02-22T11:35:54.719Z,9.40
2023-02-22T11:41:17.800Z,9.50
2023-02-22T11:46:27.195Z,9.20
2023-02-22T11:51:41.375Z,9.20
2023-02-22T11:56:47.039Z,9.30
2023-02-22T12:02:23.601Z,9.60
2023-02-22T12:07:32.836Z,9.70
2023-02-22T12:12:34.909Z,9.50
2023-02-22T12:18:03.225Z,9.60
2023-02-22T12:23:36.339Z,10.10
2023-02-22T12:28:40.101Z,10.80
2023-02-22T12:34:26.740Z,11.30
2023-02-22T12:39:55.301Z,11.40
2023-02-22T12:45:05.134Z,10.40
2023-02-22T12:50:20.094Z,9.80
2023-02-22T12:55:52.419Z,9.50
2023-02-22T13:01:06.977Z,9.30
2023-02-22T13:06:15.503Z,9.40
2023-02-22T13:11:36.939Z,9.20
2023-02-22T13:17:21.769Z,9.40
2023-02-22T13:22:54.120Z,10.30
2023-02-22T13:28:00.128Z,9.90
2023-02-22T13:33:08.370Z,9.80
2023-02-22T13:38:29.051Z,10.10
2023-02-22T13:43:49.581Z,10.30
2023-02-22T13:49:16.408Z,11.30
2023-02-22T13:54:27.512Z,11.90
2023-02-22T13:59:33.305Z,12.00
2023-02-22T14:04:41.360Z,11.80
2023-02-22T14:09:53.183Z,11.20
2023-02-22T14:15:18.680Z,10.40
2023-02-22T14:20:38.221Z,10.10
2023-02-22T14:25:44.206Z,10.00
2023-02-22T14:30:46.686Z,9.60
2023-02-22T14:35:50.484Z,9.50
2023-02-22T14:40:54.359Z,9.40
2023-02-22T14:46:00.427Z,9.60
2023-02-22T14:51:21.408Z,9.40
2023-02-22T14:56:36.242Z,9.40
2023-02-22T15:01:50.783Z,9.40
2023-02-22T15:06:57.248Z,9.60
2023-02-22T15:12:05.523Z,9.60
2023-02-22T15:17:27.325Z,9.50
2023-02-22T15:22:36.698Z,9.40
2023-02-22T15:27:45.909Z,9.30
2023-02-22T15:33:03.099Z,9.40
2023-02-22T15:38:07.432Z,9.70
2023-02-22T15:43:28.469Z,9.50
2023-02-22T15:48:31.806Z,9.20
2023-02-22T15:53:47.005Z,9.10
2023-02-22T15:58:49.533Z,9.20
2023-02-22T16:03:54.742Z,9.70
2023-02-22T16:08:59.468Z,10.00
2023-02-22T16:14:05.144Z,9.60
2023-02-22T16:19:37.192Z,9.10
2023-02-22T16:24:40.353Z,9.00
2023-02-22T16:29:42.893Z,9.50
2023-02-22T16:34:45.021Z,9.70
2023-02-22T16:39:47.217Z,9.40
2023-02-22T16:44:50.594Z,8.80
2023-02-22T16:49:52.945Z,8.70
2023-02-22T16:54:55.158Z,8.70
2023-02-22T16:59:57.513Z,8.70
2023-02-22T17:05:00.773Z,8.70
2023-02-22T17:10:02.834Z,8.90
2023-02-22T17:15:05.224Z,8.40
2023-02-22T17:20:11.624Z,8.30
2023-02-22T17:25:23.066Z,8.30
2023-02-22T17:30:25.275Z,8.30
2023-02-22T17:35:27.527Z,8.20
2023-02-22T17:40:30.012Z,8.00
2023-02-22T17:45:32.444Z,7.90
2023-02-22T17:50:38.090Z,7.80
2023-02-22T17:55:42.256Z,7.70
2023-02-22T18:00:48.466Z,7.60
2023-02-22T18:05:55.663Z,7.60
2023-02-22T18:10:59.010Z,7.50
2023-02-22T18:16:01.200Z,7.30
2023-02-22T18:21:03.898Z,7.20
2023-02-22T18:26:11.398Z,7.10
2023-02-22T18:31:16.578Z,7.10
2023-02-22T18:36:23.410Z,7.10
2023-02-22T18:41:25.893Z,7.10
2023-02-22T18:46:30.210Z,7.00
2023-02-22T18:51:32.573Z,7.00
2023-02-22T18:56:34.719Z,6.90
2023-02-22T19:01:39.178Z,6.90
2023-02-22T19:06:44.827Z,6.90
2023-02-22T19:11:48.433Z,6.80
2023-02-22T19:16:51.174Z,6.90
2023-02-22T19:21:56.369Z,6.90
2023-02-22T19:27:00.053Z,6.90
2023-02-22T19:32:02.247Z,6.80
2023-02-22T19:37:06.001Z,6.70
2023-02-22T19:42:10.090Z,6.60
2023-02-22T19:47:12.682Z,6.50
2023-02-22T19:52:14.870Z,6.30
2023-02-22T19:57:17.073Z,6.20
2023-02-22T20:02:20.515Z,6.20
2023-02-22T20:07:23.179Z,6.30
2023-02-22T20:12:25.252Z,6.30
2023-02-22T20:17:27.889Z,6.20
2023-02-22T20:22:29.953Z,6.00
2023-02-22T20:27:32.068Z,5.80
2023-02-22T20:32:34.327Z,5.80
2023-02-22T20:37:38.951Z,5.60
2023-02-22T20:42:41.163Z,5.60
2023-02-22T20:47:43.503Z,5.70
2023-02-22T20:52:45.704Z,5.80
2023-02-22T20:57:47.825Z,5.90
2023-02-22T21:02:49.910Z,5.90
2023-02-22T21:07:52.031Z,5.90
2023-02-22T21:12:56.909Z,6.00
2023-02-22T21:18:00.841Z,5.90
2023-02-22T21:23:04.556Z,5.90
2023-02-22T21:28:06.782Z,5.90
2023-02-22T21:33:09.150Z,5.90
2023-02-22T21:38:14.565Z,5.90
2023-02-22T21:43:16.827Z,5.90
2023-02-22T21:48:19.032Z,5.80
2023-02-22T21:53:22.730Z,5.70
2023-02-22T21:58:24.860Z,5.60
2023-02-22T22:03:27.430Z,5.50
2023-02-22T22:08:31.750Z,5.40
2023-02-22T22:13:33.861Z,5.30
2023-02-22T22:18:37.946Z,5.20
2023-02-22T22:23:41.403Z,5.10
2023-02-22T22:28:49.099Z,5.10
2023-02-22T22:33:51.794Z,5.10
2023-02-22T22:38:57.601Z,5.10
2023-02-22T22:43:59.862Z,5.00
2023-02-22T22:49:02.462Z,5.00
2023-02-22T22:54:09.526Z,5.00
2023-02-22T22:59:13.301Z,4.90
2023-02-22T23:04:17.008Z,4.90
2023-02-22T23:09:29.663Z,4.90
2023-02-22T23:14:32.040Z,4.90
2023-02-22T23:19:36.164Z,4.80
2023-02-22T23:24:39.623Z,4.70
2023-02-22T23:29:42.917Z,4.60
2023-02-22T23:34:47.991Z,4.50
2023-02-22T23:39:51.173Z,4.30
2023-02-22T23:44:53.527Z,4.10
2023-02-22T23:49:58.306Z,4.10
2023-02-22T23:55:05.517Z,4.10
